sensor_id;sensor_type;location;lat;lon;timestamp;temperature;humidity
35541;DHT22;21650;48.840;9.162;2023-07-20T00:01:40;20.10;90.00
35541;DHT22;21650;48.840;9.162;2023-07-20T00:04:10;20.00;90.20
35541;DHT22;21650;48.840;9.162;2023-07-20T00:06:35;20.00;90.20
35541;DHT22;21650;48.840;9.162;2023-07-20T00:09:01;19.90;90.10
35541;DHT22;21650;48.840;9.162;2023-07-20T00:11:27;19.90;90.00
35541;DHT22;21650;48.840;9.162;2023-07-20T00:13:53;19.90;90.00
35541;DHT22;21650;48.840;9.162;2023-07-20T00:16:19;19.80;90.30
35541;DHT22;21650;48.840;9.162;2023-07-20T00:18:44;19.70;88.80
35541;DHT22;21650;48.840;9.162;2023-07-20T00:21:10;19.70;88.80
35541;DHT22;21650;48.840;9.162;2023-07-20T00:23:35;19.70;88.80
35541;DHT22;21650;48.840;9.162;2023-07-20T00:26:01;19.60;89.00
35541;DHT22;21650;48.840;9.162;2023-07-20T00:28:27;19.50;88.80
35541;DHT22;21650;48.840;9.162;2023-07-20T00:30:53;19.50;88.70
35541;DHT22;21650;48.840;9.162;2023-07-20T00:33:18;19.40;88.80
35541;DHT22;21650;48.840;9.162;2023-07-20T00:35:44;19.30;88.10
35541;DHT22;21650;48.840;9.162;2023-07-20T00:38:10;19.30;88.10
35541;DHT22;21650;48.840;9.162;2023-07-20T00:40:37;19.20;87.90
35541;DHT22;21650;48.840;9.162;2023-07-20T00:43:03;19.20;88.10
35541;DHT22;21650;48.840;9.162;2023-07-20T00:45:29;19.20;87.80
35541;DHT22;21650;48.840;9.162;2023-07-20T00:47:55;19.10;88.00
35541;DHT22;21650;48.840;9.162;2023-07-20T00:50:21;19.00;88.10
35541;DHT22;21650;48.840;9.162;2023-07-20T00:52:46;19.00;88.00
35541;DHT22;21650;48.840;9.162;2023-07-20T00:55:12;19.00;88.40
35541;DHT22;21650;48.840;9.162;2023-07-20T00:57:38;18.90;88.60
35541;DHT22;21650;48.840;9.162;2023-07-20T01:00:04;18.80;89.00
35541;DHT22;21650;48.840;9.162;2023-07-20T01:02:29;18.70;89.20
35541;DHT22;21650;48.840;9.162;2023-07-20T01:04:55;18.70;89.40
35541;DHT22;21650;48.840;9.162;2023-07-20T01:07:36;18.70;89.40
35541;DHT22;21650;48.840;9.162;2023-07-20T01:10:25;18.70;89.20
35541;DHT22;21650;48.840;9.162;2023-07-20T01:12:52;18.70;89.00
35541;DHT22;21650;48.840;9.162;2023-07-20T01:15:19;18.70;89.30
35541;DHT22;21650;48.840;9.162;2023-07-20T01:17:45;18.60;89.30
35541;DHT22;21650;48.840;9.162;2023-07-20T01:20:14;18.60;89.60
35541;DHT22;21650;48.840;9.162;2023-07-20T01:23:20;18.50;90.00
35541;DHT22;21650;48.840;9.162;2023-07-20T01:29:17;18.50;90.10
35541;DHT22;21650;48.840;9.162;2023-07-20T01:31:47;18.50;90.10
35541;DHT22;21650;48.840;9.162;2023-07-20T01:34:17;18.50;90.30
35541;DHT22;21650;48.840;9.162;2023-07-20T01:36:45;18.40;90.30
35541;DHT22;21650;48.840;9.162;2023-07-20T01:39:11;18.40;90.40
35541;DHT22;21650;48.840;9.162;2023-07-20T01:41:37;18.40;90.80
35541;DHT22;21650;48.840;9.162;2023-07-20T01:44:04;18.40;90.60
35541;DHT22;21650;48.840;9.162;2023-07-20T01:46:29;18.30;90.70
35541;DHT22;21650;48.840;9.162;2023-07-20T01:48:55;18.30;90.90
35541;DHT22;21650;48.840;9.162;2023-07-20T01:51:21;18.20;91.10
35541;DHT22;21650;48.840;9.162;2023-07-20T01:53:46;18.30;91.10
35541;DHT22;21650;48.840;9.162;2023-07-20T01:56:12;18.20;91.10
35541;DHT22;21650;48.840;9.162;2023-07-20T02:01:56;18.10;91.50
35541;DHT22;21650;48.840;9.162;2023-07-20T02:04:22;18.10;91.60
35541;DHT22;21650;48.840;9.162;2023-07-20T02:06:47;18.00;91.70
35541;DHT22;21650;48.840;9.162;2023-07-20T02:09:13;17.90;91.90
35541;DHT22;21650;48.840;9.162;2023-07-20T02:11:38;17.90;92.00
35541;DHT22;21650;48.840;9.162;2023-07-20T02:14:04;17.90;92.20
35541;DHT22;21650;48.840;9.162;2023-07-20T02:16:29;17.90;92.20
35541;DHT22;21650;48.840;9.162;2023-07-20T02:18:55;17.90;92.30
35541;DHT22;21650;48.840;9.162;2023-07-20T02:21:22;17.80;92.40
35541;DHT22;21650;48.840;9.162;2023-07-20T02:23:48;17.70;92.70
35541;DHT22;21650;48.840;9.162;2023-07-20T02:26:14;17.70;92.90
35541;DHT22;21650;48.840;9.162;2023-07-20T02:28:40;17.70;93.10
35541;DHT22;21650;48.840;9.162;2023-07-20T02:31:06;17.60;93.20
35541;DHT22;21650;48.840;9.162;2023-07-20T02:33:32;17.50;93.40
35541;DHT22;21650;48.840;9.162;2023-07-20T02:35:57;17.50;93.50
35541;DHT22;21650;48.840;9.162;2023-07-20T02:38:23;17.50;93.60
35541;DHT22;21650;48.840;9.162;2023-07-20T02:40:49;17.50;93.80
35541;DHT22;21650;48.840;9.162;2023-07-20T02:43:15;17.40;94.00
35541;DHT22;21650;48.840;9.162;2023-07-20T02:45:41;17.40;94.00
35541;DHT22;21650;48.840;9.162;2023-07-20T02:48:09;17.40;94.10
35541;DHT22;21650;48.840;9.162;2023-07-20T02:50:35;17.30;94.30
35541;DHT22;21650;48.840;9.162;2023-07-20T02:53:02;17.30;94.40
35541;DHT22;21650;48.840;9.162;2023-07-20T02:55:27;17.30;94.60
35541;DHT22;21650;48.840;9.162;2023-07-20T02:57:53;17.30;94.50
35541;DHT22;21650;48.840;9.162;2023-07-20T03:00:19;17.30;94.60
35541;DHT22;21650;48.840;9.162;2023-07-20T03:02:46;17.20;94.80
35541;DHT22;21650;48.840;9.162;2023-07-20T03:05:17;17.30;94.90
35541;DHT22;21650;48.840;9.162;2023-07-20T03:07:43;17.30;94.90
35541;DHT22;21650;48.840;9.162;2023-07-20T03:10:09;17.20;95.00
35541;DHT22;21650;48.840;9.162;2023-07-20T03:12:35;17.20;95.00
35541;DHT22;21650;48.840;9.162;2023-07-20T03:15:02;17.20;95.10
35541;DHT22;21650;48.840;9.162;2023-07-20T03:17:28;17.20;95.30
35541;DHT22;21650;48.840;9.162;2023-07-20T03:19:54;17.20;95.40
35541;DHT22;21650;48.840;9.162;2023-07-20T03:22:19;17.10;95.40
35541;DHT22;21650;48.840;9.162;2023-07-20T03:24:46;17.10;95.60
35541;DHT22;21650;48.840;9.162;2023-07-20T03:27:12;17.20;95.60
35541;DHT22;21650;48.840;9.162;2023-07-20T03:29:38;17.10;95.70
35541;DHT22;21650;48.840;9.162;2023-07-20T03:32:04;17.10;95.80
35541;DHT22;21650;48.840;9.162;2023-07-20T03:34:29;17.20;95.80
35541;DHT22;21650;48.840;9.162;2023-07-20T03:36:55;17.10;95.90
35541;DHT22;21650;48.840;9.162;2023-07-20T03:39:22;17.10;96.00
35541;DHT22;21650;48.840;9.162;2023-07-20T03:41:47;17.10;96.10
35541;DHT22;21650;48.840;9.162;2023-07-20T03:44:13;17.10;96.20
35541;DHT22;21650;48.840;9.162;2023-07-20T03:46:39;17.10;96.30
35541;DHT22;21650;48.840;9.162;2023-07-20T03:49:04;17.10;96.40
35541;DHT22;21650;48.840;9.162;2023-07-20T03:51:31;17.00;96.40
35541;DHT22;21650;48.840;9.162;2023-07-20T03:53:57;17.10;96.60
35541;DHT22;21650;48.840;9.162;2023-07-20T03:56:23;17.00;96.60
35541;DHT22;21650;48.840;9.162;2023-07-20T03:58:49;17.10;96.60
35541;DHT22;21650;48.840;9.162;2023-07-20T04:01:15;17.10;96.60
35541;DHT22;21650;48.840;9.162;2023-07-20T04:03:42;17.10;96.80
35541;DHT22;21650;48.840;9.162;2023-07-20T04:06:08;17.00;96.90
35541;DHT22;21650;48.840;9.162;2023-07-20T04:08:34;17.10;96.90
35541;DHT22;21650;48.840;9.162;2023-07-20T04:11:01;17.10;97.10
35541;DHT22;21650;48.840;9.162;2023-07-20T04:13:27;17.10;97.30
35541;DHT22;21650;48.840;9.162;2023-07-20T04:15:53;17.00;97.30
35541;DHT22;21650;48.840;9.162;2023-07-20T04:18:19;17.10;97.60
35541;DHT22;21650;48.840;9.162;2023-07-20T04:20:45;17.00;97.60
35541;DHT22;21650;48.840;9.162;2023-07-20T04:23:10;16.90;97.80
35541;DHT22;21650;48.840;9.162;2023-07-20T04:25:38;16.90;98.00
35541;DHT22;21650;48.840;9.162;2023-07-20T04:28:07;17.00;98.10
35541;DHT22;21650;48.840;9.162;2023-07-20T04:30:36;17.00;98.30
35541;DHT22;21650;48.840;9.162;2023-07-20T04:33:03;17.10;98.10
35541;DHT22;21650;48.840;9.162;2023-07-20T04:35:52;17.00;98.30
35541;DHT22;21650;48.840;9.162;2023-07-20T04:38:19;17.00;98.40
35541;DHT22;21650;48.840;9.162;2023-07-20T04:40:45;17.00;98.60
35541;DHT22;21650;48.840;9.162;2023-07-20T04:43:11;17.10;98.80
35541;DHT22;21650;48.840;9.162;2023-07-20T04:45:37;17.20;98.80
35541;DHT22;21650;48.840;9.162;2023-07-20T04:48:03;17.10;99.10
35541;DHT22;21650;48.840;9.162;2023-07-20T04:50:29;17.20;99.20
35541;DHT22;21650;48.840;9.162;2023-07-20T04:52:54;17.40;99.10
35541;DHT22;21650;48.840;9.162;2023-07-20T04:55:20;17.40;98.80
35541;DHT22;21650;48.840;9.162;2023-07-20T04:57:45;17.60;98.70
35541;DHT22;21650;48.840;9.162;2023-07-20T05:00:11;17.70;99.00
35541;DHT22;21650;48.840;9.162;2023-07-20T05:02:38;17.70;98.50
35541;DHT22;21650;48.840;9.162;2023-07-20T05:05:04;17.70;98.80
35541;DHT22;21650;48.840;9.162;2023-07-20T05:07:31;17.80;98.60
35541;DHT22;21650;48.840;9.162;2023-07-20T05:09:57;17.80;98.90
35541;DHT22;21650;48.840;9.162;2023-07-20T05:12:23;18.00;98.30
35541;DHT22;21650;48.840;9.162;2023-07-20T05:14:49;18.10;98.40
35541;DHT22;21650;48.840;9.162;2023-07-20T05:17:14;18.30;98.10
35541;DHT22;21650;48.840;9.162;2023-07-20T05:19:40;18.50;97.80
35541;DHT22;21650;48.840;9.162;2023-07-20T05:22:06;18.80;97.40
35541;DHT22;21650;48.840;9.162;2023-07-20T05:24:31;19.10;97.00
35541;DHT22;21650;48.840;9.162;2023-07-20T05:26:58;19.30;96.50
35541;DHT22;21650;48.840;9.162;2023-07-20T05:29:24;19.80;96.20
35541;DHT22;21650;48.840;9.162;2023-07-20T05:31:49;20.00;95.30
35541;DHT22;21650;48.840;9.162;2023-07-20T05:34:15;20.10;94.60
35541;DHT22;21650;48.840;9.162;2023-07-20T05:36:40;20.10;94.90
35541;DHT22;21650;48.840;9.162;2023-07-20T05:39:06;20.00;94.60
35541;DHT22;21650;48.840;9.162;2023-07-20T05:41:32;19.70;94.60
35541;DHT22;21650;48.840;9.162;2023-07-20T05:43:57;19.50;95.30
35541;DHT22;21650;48.840;9.162;2023-07-20T05:46:23;19.60;95.90
35541;DHT22;21650;48.840;9.162;2023-07-20T05:48:49;19.70;95.30
35541;DHT22;21650;48.840;9.162;2023-07-20T05:51:15;19.80;95.90
35541;DHT22;21650;48.840;9.162;2023-07-20T05:53:41;19.60;95.60
35541;DHT22;21650;48.840;9.162;2023-07-20T05:56:06;19.70;95.60
35541;DHT22;21650;48.840;9.162;2023-07-20T05:58:36;19.70;95.80
35541;DHT22;21650;48.840;9.162;2023-07-20T06:01:01;19.50;95.80
35541;DHT22;21650;48.840;9.162;2023-07-20T06:03:27;19.50;95.90
35541;DHT22;21650;48.840;9.162;2023-07-20T06:06:01;19.50;95.80
35541;DHT22;21650;48.840;9.162;2023-07-20T06:08:31;19.60;96.40
35541;DHT22;21650;48.840;9.162;2023-07-20T06:10:57;19.70;95.50
35541;DHT22;21650;48.840;9.162;2023-07-20T06:13:23;19.60;95.90
35541;DHT22;21650;48.840;9.162;2023-07-20T06:15:49;19.70;96.00
35541;DHT22;21650;48.840;9.162;2023-07-20T06:18:15;19.60;96.20
35541;DHT22;21650;48.840;9.162;2023-07-20T06:20:40;19.80;96.80
35541;DHT22;21650;48.840;9.162;2023-07-20T06:23:06;19.70;96.20
35541;DHT22;21650;48.840;9.162;2023-07-20T06:25:32;19.70;95.90
35541;DHT22;21650;48.840;9.162;2023-07-20T06:27:58;19.70;96.10
35541;DHT22;21650;48.840;9.162;2023-07-20T06:30:24;19.80;96.30
35541;DHT22;21650;48.840;9.162;2023-07-20T06:32:50;19.70;96.00
35541;DHT22;21650;48.840;9.162;2023-07-20T06:35:16;19.70;96.20
35541;DHT22;21650;48.840;9.162;2023-07-20T06:37:42;19.70;96.70
35541;DHT22;21650;48.840;9.162;2023-07-20T06:40:08;19.80;96.60
35541;DHT22;21650;48.840;9.162;2023-07-20T06:42:34;19.80;96.40
35541;DHT22;21650;48.840;9.162;2023-07-20T06:45:01;19.80;96.60
35541;DHT22;21650;48.840;9.162;2023-07-20T06:47:26;19.90;96.30
35541;DHT22;21650;48.840;9.162;2023-07-20T06:49:52;19.90;96.40
35541;DHT22;21650;48.840;9.162;2023-07-20T06:52:18;20.00;96.40
35541;DHT22;21650;48.840;9.162;2023-07-20T06:54:43;20.00;96.30
35541;DHT22;21650;48.840;9.162;2023-07-20T06:57:09;20.10;96.00
35541;DHT22;21650;48.840;9.162;2023-07-20T06:59:35;20.10;96.30
35541;DHT22;21650;48.840;9.162;2023-07-20T07:02:00;20.30;96.40
35541;DHT22;21650;48.840;9.162;2023-07-20T07:04:26;20.30;96.20
35541;DHT22;21650;48.840;9.162;2023-07-20T07:06:52;20.30;96.00
35541;DHT22;21650;48.840;9.162;2023-07-20T07:09:18;20.20;96.20
35541;DHT22;21650;48.840;9.162;2023-07-20T07:11:44;20.40;96.30
35541;DHT22;21650;48.840;9.162;2023-07-20T07:14:12;20.60;96.00
35541;DHT22;21650;48.840;9.162;2023-07-20T07:16:37;20.80;94.90
35541;DHT22;21650;48.840;9.162;2023-07-20T07:19:03;20.90;95.50
35541;DHT22;21650;48.840;9.162;2023-07-20T07:21:29;20.90;95.30
35541;DHT22;21650;48.840;9.162;2023-07-20T07:23:55;20.90;94.40
35541;DHT22;21650;48.840;9.162;2023-07-20T07:26:23;20.80;95.00
35541;DHT22;21650;48.840;9.162;2023-07-20T07:28:49;21.10;94.60
35541;DHT22;21650;48.840;9.162;2023-07-20T07:31:14;20.90;94.30
35541;DHT22;21650;48.840;9.162;2023-07-20T07:33:40;20.70;94.50
35541;DHT22;21650;48.840;9.162;2023-07-20T07:36:06;20.80;94.60
35541;DHT22;21650;48.840;9.162;2023-07-20T07:38:32;21.10;94.30
35541;DHT22;21650;48.840;9.162;2023-07-20T07:40:58;21.30;94.10
35541;DHT22;21650;48.840;9.162;2023-07-20T07:43:24;21.40;94.10
35541;DHT22;21650;48.840;9.162;2023-07-20T07:45:50;21.50;93.30
35541;DHT22;21650;48.840;9.162;2023-07-20T07:48:15;21.50;92.80
35541;DHT22;21650;48.840;9.162;2023-07-20T07:50:42;21.70;93.00
35541;DHT22;21650;48.840;9.162;2023-07-20T07:53:08;21.60;92.40
35541;DHT22;21650;48.840;9.162;2023-07-20T07:55:35;21.70;92.90
35541;DHT22;21650;48.840;9.162;2023-07-20T07:58:00;21.60;91.70
35541;DHT22;21650;48.840;9.162;2023-07-20T08:00:26;21.70;91.80
35541;DHT22;21650;48.840;9.162;2023-07-20T08:02:52;21.70;92.10
35541;DHT22;21650;48.840;9.162;2023-07-20T08:05:17;21.70;92.10
35541;DHT22;21650;48.840;9.162;2023-07-20T08:07:43;21.30;92.50
35541;DHT22;21650;48.840;9.162;2023-07-20T08:10:09;21.40;93.20
35541;DHT22;21650;48.840;9.162;2023-07-20T08:12:35;21.70;93.30
35541;DHT22;21650;48.840;9.162;2023-07-20T08:15:00;21.60;92.90
35541;DHT22;21650;48.840;9.162;2023-07-20T08:17:26;21.30;93.10
35541;DHT22;21650;48.840;9.162;2023-07-20T08:19:51;21.20;92.70
35541;DHT22;21650;48.840;9.162;2023-07-20T08:22:17;21.00;92.60
35541;DHT22;21650;48.840;9.162;2023-07-20T08:24:43;21.10;93.50
35541;DHT22;21650;48.840;9.162;2023-07-20T08:27:09;21.30;92.80
35541;DHT22;21650;48.840;9.162;2023-07-20T08:29:35;21.80;93.20
35541;DHT22;21650;48.840;9.162;2023-07-20T08:32:01;22.30;91.60
35541;DHT22;21650;48.840;9.162;2023-07-20T08:34:27;22.70;91.70
35541;DHT22;21650;48.840;9.162;2023-07-20T08:36:52;23.10;91.00
35541;DHT22;21650;48.840;9.162;2023-07-20T08:39:18;23.70;90.50
35541;DHT22;21650;48.840;9.162;2023-07-20T08:41:44;24.20;87.70
35541;DHT22;21650;48.840;9.162;2023-07-20T08:44:10;24.70;88.00
35541;DHT22;21650;48.840;9.162;2023-07-20T08:46:38;24.50;87.20
35541;DHT22;21650;48.840;9.162;2023-07-20T08:49:04;25.20;86.00
35541;DHT22;21650;48.840;9.162;2023-07-20T08:51:32;24.30;82.80
35541;DHT22;21650;48.840;9.162;2023-07-20T08:53:59;23.30;88.30
35541;DHT22;21650;48.840;9.162;2023-07-20T08:56:25;22.90;88.10
35541;DHT22;21650;48.840;9.162;2023-07-20T08:58:55;23.60;88.60
35541;DHT22;21650;48.840;9.162;2023-07-20T09:01:22;24.00;85.50
35541;DHT22;21650;48.840;9.162;2023-07-20T09:03:48;24.30;85.20
35541;DHT22;21650;48.840;9.162;2023-07-20T09:06:14;25.00;87.40
35541;DHT22;21650;48.840;9.162;2023-07-20T09:08:40;24.70;81.70
35541;DHT22;21650;48.840;9.162;2023-07-20T09:11:06;24.00;84.60
35541;DHT22;21650;48.840;9.162;2023-07-20T09:13:35;23.80;86.90
35541;DHT22;21650;48.840;9.162;2023-07-20T09:16:00;23.60;85.40
35541;DHT22;21650;48.840;9.162;2023-07-20T09:18:31;23.10;86.80
35541;DHT22;21650;48.840;9.162;2023-07-20T09:21:06;22.70;88.80
35541;DHT22;21650;48.840;9.162;2023-07-20T09:23:38;23.20;86.00
35541;DHT22;21650;48.840;9.162;2023-07-20T09:26:12;23.60;88.50
35541;DHT22;21650;48.840;9.162;2023-07-20T09:29:05;24.20;84.30
35541;DHT22;21650;48.840;9.162;2023-07-20T09:31:32;24.30;82.40
35541;DHT22;21650;48.840;9.162;2023-07-20T09:33:58;24.50;83.60
35541;DHT22;21650;48.840;9.162;2023-07-20T09:36:24;24.70;82.70
35541;DHT22;21650;48.840;9.162;2023-07-20T09:38:51;24.50;78.00
35541;DHT22;21650;48.840;9.162;2023-07-20T09:41:18;24.30;77.40
35541;DHT22;21650;48.840;9.162;2023-07-20T09:43:45;24.70;76.80
35541;DHT22;21650;48.840;9.162;2023-07-20T09:46:11;24.50;76.00
35541;DHT22;21650;48.840;9.162;2023-07-20T09:48:36;24.60;75.60
35541;DHT22;21650;48.840;9.162;2023-07-20T09:51:02;24.80;75.00
35541;DHT22;21650;48.840;9.162;2023-07-20T09:53:28;24.60;73.70
35541;DHT22;21650;48.840;9.162;2023-07-20T09:55:55;24.80;73.40
35541;DHT22;21650;48.840;9.162;2023-07-20T09:58:21;25.10;72.90
35541;DHT22;21650;48.840;9.162;2023-07-20T10:00:48;24.80;74.80
35541;DHT22;21650;48.840;9.162;2023-07-20T10:03:22;25.10;72.60
35541;DHT22;21650;48.840;9.162;2023-07-20T10:05:54;24.90;72.60
35541;DHT22;21650;48.840;9.162;2023-07-20T10:08:24;24.90;72.60
35541;DHT22;21650;48.840;9.162;2023-07-20T10:10:50;25.30;72.40
35541;DHT22;21650;48.840;9.162;2023-07-20T10:13:26;25.30;70.80
35541;DHT22;21650;48.840;9.162;2023-07-20T10:16:11;25.10;70.90
35541;DHT22;21650;48.840;9.162;2023-07-20T10:21:17;24.70;69.80
35541;DHT22;21650;48.840;9.162;2023-07-20T10:23:45;25.00;70.60
35541;DHT22;21650;48.840;9.162;2023-07-20T10:26:11;24.90;70.00
35541;DHT22;21650;48.840;9.162;2023-07-20T10:28:38;25.00;69.00
35541;DHT22;21650;48.840;9.162;2023-07-20T10:31:07;25.10;68.90
35541;DHT22;21650;48.840;9.162;2023-07-20T10:33:33;25.10;69.50
35541;DHT22;21650;48.840;9.162;2023-07-20T10:36:04;25.10;67.90
35541;DHT22;21650;48.840;9.162;2023-07-20T10:41:34;24.90;67.00
35541;DHT22;21650;48.840;9.162;2023-07-20T10:44:04;24.50;66.80
35541;DHT22;21650;48.840;9.162;2023-07-20T10:46:43;24.90;69.00
35541;DHT22;21650;48.840;9.162;2023-07-20T10:49:14;25.20;67.50
35541;DHT22;21650;48.840;9.162;2023-07-20T10:51:42;25.40;68.00
35541;DHT22;21650;48.840;9.162;2023-07-20T10:56:44;25.30;66.30
35541;DHT22;21650;48.840;9.162;2023-07-20T11:01:57;25.10;67.80
35541;DHT22;21650;48.840;9.162;2023-07-20T11:04:41;25.10;65.60
35541;DHT22;21650;48.840;9.162;2023-07-20T11:07:07;25.30;66.80
35541;DHT22;21650;48.840;9.162;2023-07-20T11:09:37;25.50;64.70
35541;DHT22;21650;48.840;9.162;2023-07-20T11:12:12;25.40;65.50
35541;DHT22;21650;48.840;9.162;2023-07-20T11:14:42;25.30;63.60
35541;DHT22;21650;48.840;9.162;2023-07-20T11:17:15;25.30;64.90
35541;DHT22;21650;48.840;9.162;2023-07-20T11:19:43;25.40;65.60
35541;DHT22;21650;48.840;9.162;2023-07-20T11:22:09;25.50;66.40
35541;DHT22;21650;48.840;9.162;2023-07-20T11:24:41;26.10;64.00
35541;DHT22;21650;48.840;9.162;2023-07-20T11:27:07;26.20;66.00
35541;DHT22;21650;48.840;9.162;2023-07-20T11:29:34;26.10;62.20
35541;DHT22;21650;48.840;9.162;2023-07-20T11:32:01;26.20;62.50
35541;DHT22;21650;48.840;9.162;2023-07-20T11:34:31;26.20;62.20
35541;DHT22;21650;48.840;9.162;2023-07-20T11:36:57;26.30;59.50
35541;DHT22;21650;48.840;9.162;2023-07-20T11:39:23;26.00;61.30
35541;DHT22;21650;48.840;9.162;2023-07-20T11:41:55;26.20;60.60
35541;DHT22;21650;48.840;9.162;2023-07-20T11:44:22;26.40;59.80
35541;DHT22;21650;48.840;9.162;2023-07-20T11:47:09;26.50;60.30
35541;DHT22;21650;48.840;9.162;2023-07-20T11:49:36;26.20;60.20
35541;DHT22;21650;48.840;9.162;2023-07-20T11:52:07;26.10;62.60
35541;DHT22;21650;48.840;9.162;2023-07-20T11:54:40;26.40;62.10
35541;DHT22;21650;48.840;9.162;2023-07-20T11:57:06;26.50;60.70
35541;DHT22;21650;48.840;9.162;2023-07-20T11:59:32;26.70;62.90
35541;DHT22;21650;48.840;9.162;2023-07-20T12:02:06;26.70;58.40
35541;DHT22;21650;48.840;9.162;2023-07-20T12:04:32;26.30;59.30
35541;DHT22;21650;48.840;9.162;2023-07-20T12:06:58;26.50;61.40
35541;DHT22;21650;48.840;9.162;2023-07-20T12:09:24;26.60;58.90
35541;DHT22;21650;48.840;9.162;2023-07-20T12:11:50;26.50;61.30
35541;DHT22;21650;48.840;9.162;2023-07-20T12:14:16;26.60;60.70
35541;DHT22;21650;48.840;9.162;2023-07-20T12:16:42;26.90;62.80
35541;DHT22;21650;48.840;9.162;2023-07-20T12:19:13;26.80;60.00
35541;DHT22;21650;48.840;9.162;2023-07-20T12:21:40;26.60;59.10
35541;DHT22;21650;48.840;9.162;2023-07-20T12:24:07;26.50;59.90
35541;DHT22;21650;48.840;9.162;2023-07-20T12:26:34;26.80;58.20
35541;DHT22;21650;48.840;9.162;2023-07-20T12:29:00;26.60;58.70
35541;DHT22;21650;48.840;9.162;2023-07-20T12:31:27;27.10;59.40
35541;DHT22;21650;48.840;9.162;2023-07-20T12:33:53;26.50;58.50
35541;DHT22;21650;48.840;9.162;2023-07-20T12:36:22;26.40;59.80
35541;DHT22;21650;48.840;9.162;2023-07-20T12:38:48;26.70;60.40
35541;DHT22;21650;48.840;9.162;2023-07-20T12:41:14;26.80;58.30
35541;DHT22;21650;48.840;9.162;2023-07-20T12:43:44;26.60;57.50
35541;DHT22;21650;48.840;9.162;2023-07-20T12:46:11;26.60;58.50
35541;DHT22;21650;48.840;9.162;2023-07-20T12:48:38;26.50;58.70
35541;DHT22;21650;48.840;9.162;2023-07-20T12:51:05;26.20;59.10
35541;DHT22;21650;48.840;9.162;2023-07-20T12:53:31;26.60;58.20
35541;DHT22;21650;48.840;9.162;2023-07-20T12:55:58;27.00;56.90
35541;DHT22;21650;48.840;9.162;2023-07-20T12:58:24;27.20;56.90
35541;DHT22;21650;48.840;9.162;2023-07-20T13:00:50;27.20;56.40
35541;DHT22;21650;48.840;9.162;2023-07-20T13:03:15;26.70;57.70
35541;DHT22;21650;48.840;9.162;2023-07-20T13:05:44;26.70;57.20
35541;DHT22;21650;48.840;9.162;2023-07-20T13:08:09;26.90;57.60
35541;DHT22;21650;48.840;9.162;2023-07-20T13:10:36;27.00;56.60
35541;DHT22;21650;48.840;9.162;2023-07-20T13:13:02;26.90;57.00
35541;DHT22;21650;48.840;9.162;2023-07-20T13:15:41;27.10;55.80
35541;DHT22;21650;48.840;9.162;2023-07-20T13:18:07;26.90;57.50
35541;DHT22;21650;48.840;9.162;2023-07-20T13:20:32;27.20;56.20
35541;DHT22;21650;48.840;9.162;2023-07-20T13:22:58;27.40;56.80
35541;DHT22;21650;48.840;9.162;2023-07-20T13:25:24;27.00;56.10
35541;DHT22;21650;48.840;9.162;2023-07-20T13:27:50;27.30;56.20
35541;DHT22;21650;48.840;9.162;2023-07-20T13:30:16;27.50;54.40
35541;DHT22;21650;48.840;9.162;2023-07-20T13:32:45;27.40;55.40
35541;DHT22;21650;48.840;9.162;2023-07-20T13:35:11;26.70;55.60
35541;DHT22;21650;48.840;9.162;2023-07-20T13:37:38;26.90;56.50
35541;DHT22;21650;48.840;9.162;2023-07-20T13:40:04;27.00;55.00
35541;DHT22;21650;48.840;9.162;2023-07-20T13:42:31;27.00;56.10
35541;DHT22;21650;48.840;9.162;2023-07-20T13:44:57;27.40;56.70
35541;DHT22;21650;48.840;9.162;2023-07-20T13:47:22;27.20;54.30
35541;DHT22;21650;48.840;9.162;2023-07-20T13:49:48;27.20;54.80
35541;DHT22;21650;48.840;9.162;2023-07-20T13:52:14;27.40;54.90
35541;DHT22;21650;48.840;9.162;2023-07-20T13:54:40;27.30;55.60
35541;DHT22;21650;48.840;9.162;2023-07-20T13:57:05;27.60;57.40
35541;DHT22;21650;48.840;9.162;2023-07-20T13:59:31;27.40;54.80
35541;DHT22;21650;48.840;9.162;2023-07-20T14:01:56;27.20;54.60
35541;DHT22;21650;48.840;9.162;2023-07-20T14:04:22;27.20;54.60
35541;DHT22;21650;48.840;9.162;2023-07-20T14:06:48;27.70;55.40
35541;DHT22;21650;48.840;9.162;2023-07-20T14:09:13;27.90;54.60
35541;DHT22;21650;48.840;9.162;2023-07-20T14:11:39;27.60;53.90
35541;DHT22;21650;48.840;9.162;2023-07-20T14:14:05;27.10;53.20
35541;DHT22;21650;48.840;9.162;2023-07-20T14:16:30;27.10;54.40
35541;DHT22;21650;48.840;9.162;2023-07-20T14:18:58;26.90;53.80
35541;DHT22;21650;48.840;9.162;2023-07-20T14:21:24;27.10;55.00
35541;DHT22;21650;48.840;9.162;2023-07-20T14:23:51;27.60;53.70
35541;DHT22;21650;48.840;9.162;2023-07-20T14:26:18;27.20;51.40
35541;DHT22;21650;48.840;9.162;2023-07-20T14:28:44;27.50;52.80
35541;DHT22;21650;48.840;9.162;2023-07-20T14:31:09;27.50;53.20
35541;DHT22;21650;48.840;9.162;2023-07-20T14:33:35;27.80;53.00
35541;DHT22;21650;48.840;9.162;2023-07-20T14:36:01;28.10;52.50
35541;DHT22;21650;48.840;9.162;2023-07-20T14:38:31;28.30;51.60
35541;DHT22;21650;48.840;9.162;2023-07-20T14:40:57;27.70;51.90
35541;DHT22;21650;48.840;9.162;2023-07-20T14:43:22;27.90;53.50
35541;DHT22;21650;48.840;9.162;2023-07-20T14:45:48;28.00;50.40
35541;DHT22;21650;48.840;9.162;2023-07-20T14:48:14;27.50;51.50
35541;DHT22;21650;48.840;9.162;2023-07-20T14:50:40;28.00;52.20
35541;DHT22;21650;48.840;9.162;2023-07-20T14:53:05;28.10;51.40
35541;DHT22;21650;48.840;9.162;2023-07-20T14:55:31;27.50;49.30
35541;DHT22;21650;48.840;9.162;2023-07-20T14:57:56;27.70;51.40
35541;DHT22;21650;48.840;9.162;2023-07-20T15:00:22;27.70;50.80
35541;DHT22;21650;48.840;9.162;2023-07-20T15:02:49;27.60;52.70
35541;DHT22;21650;48.840;9.162;2023-07-20T15:05:22;27.70;52.30
35541;DHT22;21650;48.840;9.162;2023-07-20T15:07:48;27.90;50.70
35541;DHT22;21650;48.840;9.162;2023-07-20T15:10:13;28.10;51.70
35541;DHT22;21650;48.840;9.162;2023-07-20T15:12:39;28.00;51.70
35541;DHT22;21650;48.840;9.162;2023-07-20T15:15:09;27.70;51.30
35541;DHT22;21650;48.840;9.162;2023-07-20T15:17:36;27.90;50.70
35541;DHT22;21650;48.840;9.162;2023-07-20T15:20:04;27.70;52.80
35541;DHT22;21650;48.840;9.162;2023-07-20T15:22:34;27.80;51.40
35541;DHT22;21650;48.840;9.162;2023-07-20T15:25:03;27.70;51.50
35541;DHT22;21650;48.840;9.162;2023-07-20T15:27:29;27.50;51.30
35541;DHT22;21650;48.840;9.162;2023-07-20T15:29:55;27.60;52.60
35541;DHT22;21650;48.840;9.162;2023-07-20T15:32:21;27.80;51.90
35541;DHT22;21650;48.840;9.162;2023-07-20T15:34:46;27.80;51.10
35541;DHT22;21650;48.840;9.162;2023-07-20T15:37:12;28.10;51.20
35541;DHT22;21650;48.840;9.162;2023-07-20T15:39:39;28.00;50.00
35541;DHT22;21650;48.840;9.162;2023-07-20T15:42:05;27.70;50.20
35541;DHT22;21650;48.840;9.162;2023-07-20T15:44:31;27.70;50.90
35541;DHT22;21650;48.840;9.162;2023-07-20T15:46:56;27.60;52.10